Details From LJLJ - Ljubljana
To LJPZ - Portoroz
Flight Number -
Tags Generated
Created
Modified
Stats Distance 57 nm / 106 km
Max Altitude 0 ft / 0 m
Waypoints 2
Social Downloads 0
Likes 0
Share VATSIM

Download

Looking for another format? Having issues loading an existing format? Contact us
Advertisement - Login to hide

Notes

Generated

Route

LJLJ LJPZ

ID Type Via Altitude Latitude Longitude Leg Dist Tot Dist Heading (true) Name
O LJLJ APT - 0 ft / 0 m 46.23249˚ 14.44039˚ - 0 nm - -
O LJPZ APT - 0 ft / 0 m 45.47718˚ 13.61198˚ 57 nm 57 nm 218° / 217° -

Altitude Profile

Advertisement - Login to hide

LJLJ

Details ICAO LJLJ (LJU)
Name LJUBLJANA
Region Slovenia
Timezone Europe/Ljubljana (UTC+2.0)
Stats Elevation 1,273 ft / 388 m (AMSL)
Location 46.223685° 14.457608°
Runways 1
Magnetic Variation 3.712° E

METAR

LJLJ 222000Z 29004KT 9999 FEW040 SCT053 BKN085 16/15 Q1017 NOSIG

Decode

TAF

TAF LJLJ 222000Z 2221/2321 30003KT 9999 FEW040 SCT060 BECMG 2301/2303 0600 FG VV001 BECMG 2305/2307 9999 NSW FEW020 SCT090 TEMPO 2311/2321 SHRA SCT040TCU BKN070 PROB40 TEMPO 2312/2318 VRB15KT 4000 TSRA SCT040CB BKN050

Decode

Departure Runways

ID Width Length Bearing (true) Bearing (mag) Surface Threshold Offset Overrun Length
13 148 ft / 45 m 10,811 ft / 3,295 m 126.47° 122.76° Asphalt 0 ft / 0 m 0 ft / 0 m
31 148 ft / 45 m 10,811 ft / 3,295 m 306.49° 302.78° Asphalt 0 ft / 0 m 0 ft / 0 m

LJPZ

Details ICAO LJPZ (POW)
Name PORTOROZ
Region Slovenia
Timezone Europe/Ljubljana (UTC+2.0)
Stats Elevation 7 ft / 2 m (AMSL)
Location 45.472445° 13.615681°
Runways 1
Magnetic Variation 3.493° E

METAR

LJPZ 222000Z 12002KT CAVOK 18/17 Q1016

Decode

TAF

Not found

Destination Runways

ID Width Length Bearing (true) Bearing (mag) Surface Threshold Offset Overrun Length
15 98 ft / 30 m 3,939 ft / 1,201 m 151.28° 147.79° Asphalt 0 ft / 0 m 0 ft / 0 m
33 98 ft / 30 m 3,939 ft / 1,201 m 331.29° 327.80° Asphalt 751 ft / 229 m 0 ft / 0 m

Popular Alternatives